<?xml version="1.0" encoding="UTF-8" standalone="no" ?>
<gpx xmlns="http://www.topografix.com/GPX/1/1" xmlns:xsi="http://www.w3.org/2001/XMLSchema-instance" xsi:schemaLocation="http://www.topografix.com/GPX/1/1 http://www.topografix.com/GPX/1/1/gpx.xsd" version="1.1" creator="VisuGPX - https://www.visugpx.com">
  <metadata>
    <name>09_La Bastide Sérou Mondély Unjat</name>
  </metadata>
  <trk>
    <name><![CDATA[09_La Bastide Sérou Mondély Unjat]]></name>
    <trkseg>
      <trkpt lat="43.01255" lon="1.43927">
        <ele>398.58</ele>
        <time>2019-09-08T07:15:08Z</time>
      </trkpt>
      <trkpt lat="43.01247" lon="1.43905">
        <ele>400.34</ele>
        <time>2019-09-08T07:20:30Z</time>
      </trkpt>
      <trkpt lat="43.01249" lon="1.43905">
        <ele>401.01</ele>
        <time>2019-09-08T07:22:04Z</time>
      </trkpt>
      <trkpt lat="43.01245" lon="1.43908">
        <ele>401.47</ele>
        <time>2019-09-08T07:23:31Z</time>
      </trkpt>
      <trkpt lat="43.01256" lon="1.43903">
        <ele>402.07</ele>
        <time>2019-09-08T07:25:33Z</time>
      </trkpt>
      <trkpt lat="43.01246" lon="1.43908">
        <ele>402.47</ele>
        <time>2019-09-08T07:27:26Z</time>
      </trkpt>
      <trkpt lat="43.01243" lon="1.43904">
        <ele>401.35</ele>
        <time>2019-09-08T07:29:08Z</time>
      </trkpt>
      <trkpt lat="43.01251" lon="1.43907">
        <ele>401.45</ele>
        <time>2019-09-08T07:31:03Z</time>
      </trkpt>
      <trkpt lat="43.01248" lon="1.439">
        <ele>403.84</ele>
        <time>2019-09-08T07:34:20Z</time>
      </trkpt>
      <trkpt lat="43.01269" lon="1.4387">
        <ele>403.45</ele>
        <time>2019-09-08T07:34:48Z</time>
      </trkpt>
      <trkpt lat="43.01298" lon="1.43889">
        <ele>404.34</ele>
        <time>2019-09-08T07:35:14Z</time>
      </trkpt>
      <trkpt lat="43.01323" lon="1.43902">
        <ele>405.8</ele>
        <time>2019-09-08T07:35:39Z</time>
      </trkpt>
      <trkpt lat="43.01339" lon="1.4387">
        <ele>406.96</ele>
        <time>2019-09-08T07:36:07Z</time>
      </trkpt>
      <trkpt lat="43.01349" lon="1.43831">
        <ele>406.98</ele>
        <time>2019-09-08T07:36:34Z</time>
      </trkpt>
      <trkpt lat="43.01349" lon="1.43785">
        <ele>405.4</ele>
        <time>2019-09-08T07:37:03Z</time>
      </trkpt>
      <trkpt lat="43.01351" lon="1.43734">
        <ele>405.36</ele>
        <time>2019-09-08T07:37:33Z</time>
      </trkpt>
      <trkpt lat="43.01355" lon="1.43693">
        <ele>405.28</ele>
        <time>2019-09-08T07:37:56Z</time>
      </trkpt>
      <trkpt lat="43.01354" lon="1.43651">
        <ele>405.19</ele>
        <time>2019-09-08T07:38:23Z</time>
      </trkpt>
      <trkpt lat="43.01352" lon="1.43612">
        <ele>405.09</ele>
        <time>2019-09-08T07:38:48Z</time>
      </trkpt>
      <trkpt lat="43.01355" lon="1.43575">
        <ele>402.61</ele>
        <time>2019-09-08T07:39:10Z</time>
      </trkpt>
      <trkpt lat="43.01359" lon="1.43533">
        <ele>402.52</ele>
        <time>2019-09-08T07:39:34Z</time>
      </trkpt>
      <trkpt lat="43.01361" lon="1.43493">
        <ele>401.18</ele>
        <time>2019-09-08T07:39:56Z</time>
      </trkpt>
      <trkpt lat="43.01362" lon="1.43453">
        <ele>401.17</ele>
        <time>2019-09-08T07:40:21Z</time>
      </trkpt>
      <trkpt lat="43.0137" lon="1.43412">
        <ele>401.1</ele>
        <time>2019-09-08T07:40:47Z</time>
      </trkpt>
      <trkpt lat="43.01374" lon="1.43368">
        <ele>400.99</ele>
        <time>2019-09-08T07:41:15Z</time>
      </trkpt>
      <trkpt lat="43.01381" lon="1.43325">
        <ele>400.89</ele>
        <time>2019-09-08T07:41:44Z</time>
      </trkpt>
      <trkpt lat="43.01393" lon="1.4327">
        <ele>400.68</ele>
        <time>2019-09-08T07:42:23Z</time>
      </trkpt>
      <trkpt lat="43.01416" lon="1.43221">
        <ele>400.41</ele>
        <time>2019-09-08T07:42:59Z</time>
      </trkpt>
      <trkpt lat="43.01436" lon="1.43182">
        <ele>401.13</ele>
        <time>2019-09-08T07:43:27Z</time>
      </trkpt>
      <trkpt lat="43.01455" lon="1.43138">
        <ele>400.92</ele>
        <time>2019-09-08T07:44:01Z</time>
      </trkpt>
      <trkpt lat="43.01477" lon="1.43092">
        <ele>400.7</ele>
        <time>2019-09-08T07:44:35Z</time>
      </trkpt>
      <trkpt lat="43.01503" lon="1.43051">
        <ele>400.49</ele>
        <time>2019-09-08T07:45:06Z</time>
      </trkpt>
      <trkpt lat="43.01523" lon="1.43011">
        <ele>400.34</ele>
        <time>2019-09-08T07:45:33Z</time>
      </trkpt>
      <trkpt lat="43.01539" lon="1.42966">
        <ele>400.26</ele>
        <time>2019-09-08T07:46:01Z</time>
      </trkpt>
      <trkpt lat="43.01556" lon="1.42922">
        <ele>400.19</ele>
        <time>2019-09-08T07:46:33Z</time>
      </trkpt>
      <trkpt lat="43.01575" lon="1.42881">
        <ele>397.82</ele>
        <time>2019-09-08T07:47:02Z</time>
      </trkpt>
      <trkpt lat="43.01598" lon="1.42844">
        <ele>397.76</ele>
        <time>2019-09-08T07:47:30Z</time>
      </trkpt>
      <trkpt lat="43.01615" lon="1.42805">
        <ele>397.77</ele>
        <time>2019-09-08T07:47:56Z</time>
      </trkpt>
      <trkpt lat="43.01632" lon="1.42769">
        <ele>396.73</ele>
        <time>2019-09-08T07:48:21Z</time>
      </trkpt>
      <trkpt lat="43.01649" lon="1.42735">
        <ele>396.75</ele>
        <time>2019-09-08T07:48:46Z</time>
      </trkpt>
      <trkpt lat="43.01661" lon="1.42696">
        <ele>396</ele>
        <time>2019-09-08T07:49:12Z</time>
      </trkpt>
      <trkpt lat="43.0167" lon="1.42639">
        <ele>396.7</ele>
        <time>2019-09-08T07:49:45Z</time>
      </trkpt>
      <trkpt lat="43.01676" lon="1.42596">
        <ele>396.54</ele>
        <time>2019-09-08T07:50:09Z</time>
      </trkpt>
      <trkpt lat="43.01683" lon="1.42554">
        <ele>396.24</ele>
        <time>2019-09-08T07:50:51Z</time>
      </trkpt>
      <trkpt lat="43.01697" lon="1.42503">
        <ele>396.03</ele>
        <time>2019-09-08T07:51:25Z</time>
      </trkpt>
      <trkpt lat="43.01712" lon="1.42445">
        <ele>393.51</ele>
        <time>2019-09-08T07:52:00Z</time>
      </trkpt>
      <trkpt lat="43.01744" lon="1.42393">
        <ele>392.28</ele>
        <time>2019-09-08T07:52:37Z</time>
      </trkpt>
      <trkpt lat="43.01776" lon="1.42348">
        <ele>391.13</ele>
        <time>2019-09-08T07:53:15Z</time>
      </trkpt>
      <trkpt lat="43.01805" lon="1.42312">
        <ele>389.52</ele>
        <time>2019-09-08T07:53:45Z</time>
      </trkpt>
      <trkpt lat="43.01839" lon="1.4228">
        <ele>389.18</ele>
        <time>2019-09-08T07:54:15Z</time>
      </trkpt>
      <trkpt lat="43.01867" lon="1.42248">
        <ele>387.79</ele>
        <time>2019-09-08T07:54:43Z</time>
      </trkpt>
      <trkpt lat="43.0189" lon="1.42217">
        <ele>387.71</ele>
        <time>2019-09-08T07:55:10Z</time>
      </trkpt>
      <trkpt lat="43.01911" lon="1.42184">
        <ele>387.61</ele>
        <time>2019-09-08T07:55:38Z</time>
      </trkpt>
      <trkpt lat="43.01945" lon="1.42169">
        <ele>387.72</ele>
        <time>2019-09-08T07:56:04Z</time>
      </trkpt>
      <trkpt lat="43.01975" lon="1.42154">
        <ele>384.5</ele>
        <time>2019-09-08T07:56:30Z</time>
      </trkpt>
      <trkpt lat="43.02009" lon="1.42139">
        <ele>384.56</ele>
        <time>2019-09-08T07:56:57Z</time>
      </trkpt>
      <trkpt lat="43.02044" lon="1.42129">
        <ele>382.77</ele>
        <time>2019-09-08T07:57:29Z</time>
      </trkpt>
      <trkpt lat="43.0207" lon="1.42102">
        <ele>385.25</ele>
        <time>2019-09-08T07:57:57Z</time>
      </trkpt>
      <trkpt lat="43.02089" lon="1.42054">
        <ele>386.1</ele>
        <time>2019-09-08T07:58:29Z</time>
      </trkpt>
      <trkpt lat="43.02115" lon="1.42012">
        <ele>387.76</ele>
        <time>2019-09-08T07:59:02Z</time>
      </trkpt>
      <trkpt lat="43.02137" lon="1.41965">
        <ele>391.97</ele>
        <time>2019-09-08T07:59:39Z</time>
      </trkpt>
      <trkpt lat="43.02146" lon="1.41909">
        <ele>396.85</ele>
        <time>2019-09-08T08:00:29Z</time>
      </trkpt>
      <trkpt lat="43.02141" lon="1.4191">
        <ele>396.57</ele>
        <time>2019-09-08T08:03:08Z</time>
      </trkpt>
      <trkpt lat="43.02134" lon="1.41913">
        <ele>398.01</ele>
        <time>2019-09-08T08:05:08Z</time>
      </trkpt>
      <trkpt lat="43.02144" lon="1.41873">
        <ele>399.27</ele>
        <time>2019-09-08T08:05:58Z</time>
      </trkpt>
      <trkpt lat="43.02143" lon="1.41827">
        <ele>404.69</ele>
        <time>2019-09-08T08:06:41Z</time>
      </trkpt>
      <trkpt lat="43.02143" lon="1.41781">
        <ele>409.73</ele>
        <time>2019-09-08T08:07:27Z</time>
      </trkpt>
      <trkpt lat="43.02145" lon="1.41741">
        <ele>414.78</ele>
        <time>2019-09-08T08:08:06Z</time>
      </trkpt>
      <trkpt lat="43.02148" lon="1.41699">
        <ele>417.45</ele>
        <time>2019-09-08T08:08:37Z</time>
      </trkpt>
      <trkpt lat="43.02145" lon="1.41659">
        <ele>421.52</ele>
        <time>2019-09-08T08:09:14Z</time>
      </trkpt>
      <trkpt lat="43.02155" lon="1.41628">
        <ele>425.92</ele>
        <time>2019-09-08T08:09:53Z</time>
      </trkpt>
      <trkpt lat="43.02163" lon="1.41668">
        <ele>429.29</ele>
        <time>2019-09-08T08:10:29Z</time>
      </trkpt>
      <trkpt lat="43.0218" lon="1.417">
        <ele>431.7</ele>
        <time>2019-09-08T08:11:02Z</time>
      </trkpt>
      <trkpt lat="43.02203" lon="1.41729">
        <ele>435.92</ele>
        <time>2019-09-08T08:11:37Z</time>
      </trkpt>
      <trkpt lat="43.0223" lon="1.41754">
        <ele>441.26</ele>
        <time>2019-09-08T08:12:18Z</time>
      </trkpt>
      <trkpt lat="43.02253" lon="1.41787">
        <ele>446.68</ele>
        <time>2019-09-08T08:13:08Z</time>
      </trkpt>
      <trkpt lat="43.02255" lon="1.41822">
        <ele>451.13</ele>
        <time>2019-09-08T08:14:22Z</time>
      </trkpt>
      <trkpt lat="43.02258" lon="1.4187">
        <ele>457.43</ele>
        <time>2019-09-08T08:15:07Z</time>
      </trkpt>
      <trkpt lat="43.02266" lon="1.41919">
        <ele>464.29</ele>
        <time>2019-09-08T08:16:01Z</time>
      </trkpt>
      <trkpt lat="43.02279" lon="1.4197">
        <ele>471.95</ele>
        <time>2019-09-08T08:16:57Z</time>
      </trkpt>
      <trkpt lat="43.02289" lon="1.42024">
        <ele>480.31</ele>
        <time>2019-09-08T08:17:53Z</time>
      </trkpt>
      <trkpt lat="43.02301" lon="1.42075">
        <ele>485.32</ele>
        <time>2019-09-08T08:18:47Z</time>
      </trkpt>
      <trkpt lat="43.02317" lon="1.42124">
        <ele>491.45</ele>
        <time>2019-09-08T08:19:44Z</time>
      </trkpt>
      <trkpt lat="43.02333" lon="1.42169">
        <ele>497.18</ele>
        <time>2019-09-08T08:20:48Z</time>
      </trkpt>
      <trkpt lat="43.02351" lon="1.42209">
        <ele>502.25</ele>
        <time>2019-09-08T08:21:40Z</time>
      </trkpt>
      <trkpt lat="43.02366" lon="1.42203">
        <ele>506.44</ele>
        <time>2019-09-08T08:28:28Z</time>
      </trkpt>
      <trkpt lat="43.0238" lon="1.42169">
        <ele>508.35</ele>
        <time>2019-09-08T08:32:08Z</time>
      </trkpt>
      <trkpt lat="43.02417" lon="1.42165">
        <ele>513.28</ele>
        <time>2019-09-08T08:33:03Z</time>
      </trkpt>
      <trkpt lat="43.02463" lon="1.42169">
        <ele>517.46</ele>
        <time>2019-09-08T08:33:51Z</time>
      </trkpt>
      <trkpt lat="43.02508" lon="1.42162">
        <ele>521.63</ele>
        <time>2019-09-08T08:34:48Z</time>
      </trkpt>
      <trkpt lat="43.02542" lon="1.42155">
        <ele>525.13</ele>
        <time>2019-09-08T08:35:31Z</time>
      </trkpt>
      <trkpt lat="43.02572" lon="1.42162">
        <ele>526.18</ele>
        <time>2019-09-08T08:36:00Z</time>
      </trkpt>
      <trkpt lat="43.02605" lon="1.42184">
        <ele>523.95</ele>
        <time>2019-09-08T08:36:35Z</time>
      </trkpt>
      <trkpt lat="43.02636" lon="1.42201">
        <ele>523.92</ele>
        <time>2019-09-08T08:37:07Z</time>
      </trkpt>
      <trkpt lat="43.02664" lon="1.42226">
        <ele>523.79</ele>
        <time>2019-09-08T08:37:37Z</time>
      </trkpt>
      <trkpt lat="43.02692" lon="1.42256">
        <ele>526.01</ele>
        <time>2019-09-08T08:38:08Z</time>
      </trkpt>
      <trkpt lat="43.02724" lon="1.42246">
        <ele>528.02</ele>
        <time>2019-09-08T08:38:39Z</time>
      </trkpt>
      <trkpt lat="43.02751" lon="1.4222">
        <ele>529.55</ele>
        <time>2019-09-08T08:39:08Z</time>
      </trkpt>
      <trkpt lat="43.02775" lon="1.42197">
        <ele>532.09</ele>
        <time>2019-09-08T08:39:41Z</time>
      </trkpt>
      <trkpt lat="43.028" lon="1.42178">
        <ele>535</ele>
        <time>2019-09-08T08:40:11Z</time>
      </trkpt>
      <trkpt lat="43.02826" lon="1.42161">
        <ele>537.54</ele>
        <time>2019-09-08T08:40:39Z</time>
      </trkpt>
      <trkpt lat="43.02853" lon="1.42147">
        <ele>541.2</ele>
        <time>2019-09-08T08:41:09Z</time>
      </trkpt>
      <trkpt lat="43.0288" lon="1.42131">
        <ele>543.71</ele>
        <time>2019-09-08T08:41:39Z</time>
      </trkpt>
      <trkpt lat="43.02904" lon="1.42113">
        <ele>546.35</ele>
        <time>2019-09-08T08:42:09Z</time>
      </trkpt>
      <trkpt lat="43.02933" lon="1.42109">
        <ele>549.85</ele>
        <time>2019-09-08T08:42:40Z</time>
      </trkpt>
      <trkpt lat="43.02963" lon="1.4212">
        <ele>553.58</ele>
        <time>2019-09-08T08:43:17Z</time>
      </trkpt>
      <trkpt lat="43.02994" lon="1.42121">
        <ele>554.27</ele>
        <time>2019-09-08T08:43:46Z</time>
      </trkpt>
      <trkpt lat="43.03024" lon="1.42124">
        <ele>556.22</ele>
        <time>2019-09-08T08:44:18Z</time>
      </trkpt>
      <trkpt lat="43.03058" lon="1.42127">
        <ele>557.26</ele>
        <time>2019-09-08T08:44:54Z</time>
      </trkpt>
      <trkpt lat="43.03094" lon="1.42117">
        <ele>559.92</ele>
        <time>2019-09-08T08:45:33Z</time>
      </trkpt>
      <trkpt lat="43.03128" lon="1.42132">
        <ele>561.7</ele>
        <time>2019-09-08T08:46:09Z</time>
      </trkpt>
      <trkpt lat="43.0315" lon="1.42104">
        <ele>559</ele>
        <time>2019-09-08T08:46:41Z</time>
      </trkpt>
      <trkpt lat="43.03168" lon="1.42065">
        <ele>559.01</ele>
        <time>2019-09-08T08:47:10Z</time>
      </trkpt>
      <trkpt lat="43.03187" lon="1.42027">
        <ele>564.11</ele>
        <time>2019-09-08T08:47:52Z</time>
      </trkpt>
      <trkpt lat="43.03216" lon="1.42003">
        <ele>564.9</ele>
        <time>2019-09-08T08:48:39Z</time>
      </trkpt>
      <trkpt lat="43.03249" lon="1.41982">
        <ele>569.06</ele>
        <time>2019-09-08T08:49:16Z</time>
      </trkpt>
      <trkpt lat="43.03283" lon="1.41967">
        <ele>569.05</ele>
        <time>2019-09-08T08:49:47Z</time>
      </trkpt>
      <trkpt lat="43.03304" lon="1.41939">
        <ele>569.15</ele>
        <time>2019-09-08T08:50:29Z</time>
      </trkpt>
      <trkpt lat="43.03326" lon="1.41914">
        <ele>569.31</ele>
        <time>2019-09-08T08:51:18Z</time>
      </trkpt>
      <trkpt lat="43.03345" lon="1.41886">
        <ele>570.23</ele>
        <time>2019-09-08T08:51:47Z</time>
      </trkpt>
      <trkpt lat="43.03379" lon="1.41898">
        <ele>570.97</ele>
        <time>2019-09-08T08:52:17Z</time>
      </trkpt>
      <trkpt lat="43.03406" lon="1.41921">
        <ele>575.13</ele>
        <time>2019-09-08T08:52:49Z</time>
      </trkpt>
      <trkpt lat="43.03434" lon="1.41947">
        <ele>579.27</ele>
        <time>2019-09-08T08:53:26Z</time>
      </trkpt>
      <trkpt lat="43.03446" lon="1.41971">
        <ele>581.05</ele>
        <time>2019-09-08T08:55:08Z</time>
      </trkpt>
      <trkpt lat="43.03471" lon="1.41984">
        <ele>581.1</ele>
        <time>2019-09-08T08:55:39Z</time>
      </trkpt>
      <trkpt lat="43.03458" lon="1.41987">
        <ele>581.18</ele>
        <time>2019-09-08T08:56:53Z</time>
      </trkpt>
      <trkpt lat="43.03438" lon="1.42015">
        <ele>578.88</ele>
        <time>2019-09-08T08:57:20Z</time>
      </trkpt>
      <trkpt lat="43.03433" lon="1.42024">
        <ele>577.97</ele>
        <time>2019-09-08T09:05:09Z</time>
      </trkpt>
      <trkpt lat="43.03447" lon="1.41985">
        <ele>581.36</ele>
        <time>2019-09-08T09:06:11Z</time>
      </trkpt>
      <trkpt lat="43.03475" lon="1.42003">
        <ele>581.93</ele>
        <time>2019-09-08T09:09:55Z</time>
      </trkpt>
      <trkpt lat="43.03501" lon="1.42016">
        <ele>574.04</ele>
        <time>2019-09-08T09:10:40Z</time>
      </trkpt>
      <trkpt lat="43.03533" lon="1.41985">
        <ele>568.18</ele>
        <time>2019-09-08T09:11:35Z</time>
      </trkpt>
      <trkpt lat="43.03548" lon="1.41957">
        <ele>567.69</ele>
        <time>2019-09-08T09:14:14Z</time>
      </trkpt>
      <trkpt lat="43.03581" lon="1.41954">
        <ele>559.57</ele>
        <time>2019-09-08T09:15:12Z</time>
      </trkpt>
      <trkpt lat="43.03628" lon="1.41977">
        <ele>556.55</ele>
        <time>2019-09-08T09:15:55Z</time>
      </trkpt>
      <trkpt lat="43.03663" lon="1.41991">
        <ele>560.92</ele>
        <time>2019-09-08T09:16:30Z</time>
      </trkpt>
      <trkpt lat="43.03701" lon="1.42017">
        <ele>562.75</ele>
        <time>2019-09-08T09:17:15Z</time>
      </trkpt>
      <trkpt lat="43.03745" lon="1.42039">
        <ele>559.05</ele>
        <time>2019-09-08T09:18:01Z</time>
      </trkpt>
      <trkpt lat="43.03774" lon="1.42066">
        <ele>554.2</ele>
        <time>2019-09-08T09:18:45Z</time>
      </trkpt>
      <trkpt lat="43.03805" lon="1.42046">
        <ele>546.32</ele>
        <time>2019-09-08T09:19:39Z</time>
      </trkpt>
      <trkpt lat="43.03848" lon="1.42057">
        <ele>539.94</ele>
        <time>2019-09-08T09:20:34Z</time>
      </trkpt>
      <trkpt lat="43.03873" lon="1.42021">
        <ele>536.54</ele>
        <time>2019-09-08T09:21:19Z</time>
      </trkpt>
      <trkpt lat="43.03902" lon="1.42003">
        <ele>531.79</ele>
        <time>2019-09-08T09:22:02Z</time>
      </trkpt>
      <trkpt lat="43.03933" lon="1.42">
        <ele>525.8</ele>
        <time>2019-09-08T09:22:48Z</time>
      </trkpt>
      <trkpt lat="43.03953" lon="1.41959">
        <ele>519.54</ele>
        <time>2019-09-08T09:23:33Z</time>
      </trkpt>
      <trkpt lat="43.03961" lon="1.41918">
        <ele>513.12</ele>
        <time>2019-09-08T09:24:22Z</time>
      </trkpt>
      <trkpt lat="43.03993" lon="1.41902">
        <ele>506.42</ele>
        <time>2019-09-08T09:25:06Z</time>
      </trkpt>
      <trkpt lat="43.0403" lon="1.41917">
        <ele>501.84</ele>
        <time>2019-09-08T09:25:58Z</time>
      </trkpt>
      <trkpt lat="43.04057" lon="1.41964">
        <ele>496.29</ele>
        <time>2019-09-08T09:26:51Z</time>
      </trkpt>
      <trkpt lat="43.04088" lon="1.4194">
        <ele>490.23</ele>
        <time>2019-09-08T09:27:36Z</time>
      </trkpt>
      <trkpt lat="43.0411" lon="1.41885">
        <ele>484.63</ele>
        <time>2019-09-08T09:28:28Z</time>
      </trkpt>
      <trkpt lat="43.04127" lon="1.41824">
        <ele>477.35</ele>
        <time>2019-09-08T09:29:25Z</time>
      </trkpt>
      <trkpt lat="43.04156" lon="1.41766">
        <ele>474.98</ele>
        <time>2019-09-08T09:30:16Z</time>
      </trkpt>
      <trkpt lat="43.04179" lon="1.41703">
        <ele>465.75</ele>
        <time>2019-09-08T09:31:13Z</time>
      </trkpt>
      <trkpt lat="43.04214" lon="1.41684">
        <ele>458.44</ele>
        <time>2019-09-08T09:32:07Z</time>
      </trkpt>
      <trkpt lat="43.0425" lon="1.41698">
        <ele>452.23</ele>
        <time>2019-09-08T09:33:07Z</time>
      </trkpt>
      <trkpt lat="43.04288" lon="1.4171">
        <ele>445.11</ele>
        <time>2019-09-08T09:33:49Z</time>
      </trkpt>
      <trkpt lat="43.04318" lon="1.41736">
        <ele>437.16</ele>
        <time>2019-09-08T09:34:30Z</time>
      </trkpt>
      <trkpt lat="43.04368" lon="1.4177">
        <ele>429.26</ele>
        <time>2019-09-08T09:35:22Z</time>
      </trkpt>
      <trkpt lat="43.04393" lon="1.41788">
        <ele>426.97</ele>
        <time>2019-09-08T09:36:30Z</time>
      </trkpt>
      <trkpt lat="43.04425" lon="1.41821">
        <ele>420.34</ele>
        <time>2019-09-08T09:37:16Z</time>
      </trkpt>
      <trkpt lat="43.04458" lon="1.41854">
        <ele>416.04</ele>
        <time>2019-09-08T09:38:02Z</time>
      </trkpt>
      <trkpt lat="43.04479" lon="1.41887">
        <ele>409.41</ele>
        <time>2019-09-08T09:38:53Z</time>
      </trkpt>
      <trkpt lat="43.04502" lon="1.4187">
        <ele>407.18</ele>
        <time>2019-09-08T09:39:51Z</time>
      </trkpt>
      <trkpt lat="43.04531" lon="1.4186">
        <ele>403.95</ele>
        <time>2019-09-08T09:40:39Z</time>
      </trkpt>
      <trkpt lat="43.0454" lon="1.41861">
        <ele>406.23</ele>
        <time>2019-09-08T09:41:41Z</time>
      </trkpt>
      <trkpt lat="43.0457" lon="1.41854">
        <ele>405.64</ele>
        <time>2019-09-08T09:42:46Z</time>
      </trkpt>
      <trkpt lat="43.04609" lon="1.4186">
        <ele>405.61</ele>
        <time>2019-09-08T09:43:20Z</time>
      </trkpt>
      <trkpt lat="43.04643" lon="1.41888">
        <ele>403.84</ele>
        <time>2019-09-08T09:43:52Z</time>
      </trkpt>
      <trkpt lat="43.0467" lon="1.41911">
        <ele>401.5</ele>
        <time>2019-09-08T09:44:24Z</time>
      </trkpt>
      <trkpt lat="43.04692" lon="1.41947">
        <ele>398.7</ele>
        <time>2019-09-08T09:45:04Z</time>
      </trkpt>
      <trkpt lat="43.04722" lon="1.41965">
        <ele>402.45</ele>
        <time>2019-09-08T09:45:50Z</time>
      </trkpt>
      <trkpt lat="43.04745" lon="1.41981">
        <ele>406.54</ele>
        <time>2019-09-08T09:46:34Z</time>
      </trkpt>
      <trkpt lat="43.04776" lon="1.42004">
        <ele>409.17</ele>
        <time>2019-09-08T09:47:14Z</time>
      </trkpt>
      <trkpt lat="43.0481" lon="1.42042">
        <ele>401.7</ele>
        <time>2019-09-08T09:48:00Z</time>
      </trkpt>
      <trkpt lat="43.04836" lon="1.42079">
        <ele>398.61</ele>
        <time>2019-09-08T09:48:34Z</time>
      </trkpt>
      <trkpt lat="43.04856" lon="1.42112">
        <ele>398.18</ele>
        <time>2019-09-08T09:49:10Z</time>
      </trkpt>
      <trkpt lat="43.04886" lon="1.4215">
        <ele>397.93</ele>
        <time>2019-09-08T09:49:47Z</time>
      </trkpt>
      <trkpt lat="43.04917" lon="1.42191">
        <ele>398.82</ele>
        <time>2019-09-08T09:50:31Z</time>
      </trkpt>
      <trkpt lat="43.04933" lon="1.42242">
        <ele>394.38</ele>
        <time>2019-09-08T09:51:13Z</time>
      </trkpt>
      <trkpt lat="43.04947" lon="1.42311">
        <ele>393.1</ele>
        <time>2019-09-08T09:52:05Z</time>
      </trkpt>
      <trkpt lat="43.04973" lon="1.42369">
        <ele>391.82</ele>
        <time>2019-09-08T09:52:55Z</time>
      </trkpt>
      <trkpt lat="43.0499" lon="1.42416">
        <ele>390.62</ele>
        <time>2019-09-08T09:53:48Z</time>
      </trkpt>
      <trkpt lat="43.04989" lon="1.4248">
        <ele>391.18</ele>
        <time>2019-09-08T09:54:39Z</time>
      </trkpt>
      <trkpt lat="43.04997" lon="1.42534">
        <ele>390.16</ele>
        <time>2019-09-08T09:55:29Z</time>
      </trkpt>
      <trkpt lat="43.05004" lon="1.42579">
        <ele>390.03</ele>
        <time>2019-09-08T09:56:00Z</time>
      </trkpt>
      <trkpt lat="43.05017" lon="1.42623">
        <ele>389.17</ele>
        <time>2019-09-08T09:56:37Z</time>
      </trkpt>
      <trkpt lat="43.05035" lon="1.4266">
        <ele>386.35</ele>
        <time>2019-09-08T09:57:08Z</time>
      </trkpt>
      <trkpt lat="43.05053" lon="1.427">
        <ele>386.26</ele>
        <time>2019-09-08T09:57:41Z</time>
      </trkpt>
      <trkpt lat="43.05078" lon="1.42748">
        <ele>380.5</ele>
        <time>2019-09-08T09:58:30Z</time>
      </trkpt>
      <trkpt lat="43.05092" lon="1.42787">
        <ele>375.43</ele>
        <time>2019-09-08T09:59:10Z</time>
      </trkpt>
      <trkpt lat="43.05077" lon="1.42814">
        <ele>374.94</ele>
        <time>2019-09-08T10:02:47Z</time>
      </trkpt>
      <trkpt lat="43.05049" lon="1.42825">
        <ele>375.02</ele>
        <time>2019-09-08T10:03:11Z</time>
      </trkpt>
      <trkpt lat="43.05025" lon="1.42842">
        <ele>374.15</ele>
        <time>2019-09-08T10:03:37Z</time>
      </trkpt>
      <trkpt lat="43.05019" lon="1.42878">
        <ele>376.54</ele>
        <time>2019-09-08T10:04:02Z</time>
      </trkpt>
      <trkpt lat="43.05037" lon="1.42922">
        <ele>380.95</ele>
        <time>2019-09-08T10:04:37Z</time>
      </trkpt>
      <trkpt lat="43.05045" lon="1.42969">
        <ele>385.55</ele>
        <time>2019-09-08T10:05:11Z</time>
      </trkpt>
      <trkpt lat="43.05036" lon="1.43012">
        <ele>389.62</ele>
        <time>2019-09-08T10:05:42Z</time>
      </trkpt>
      <trkpt lat="43.0503" lon="1.43051">
        <ele>393.97</ele>
        <time>2019-09-08T10:06:12Z</time>
      </trkpt>
      <trkpt lat="43.05019" lon="1.43099">
        <ele>396.32</ele>
        <time>2019-09-08T10:06:48Z</time>
      </trkpt>
      <trkpt lat="43.05003" lon="1.4314">
        <ele>394.82</ele>
        <time>2019-09-08T10:07:18Z</time>
      </trkpt>
      <trkpt lat="43.04979" lon="1.43152">
        <ele>397.69</ele>
        <time>2019-09-08T10:07:48Z</time>
      </trkpt>
      <trkpt lat="43.05011" lon="1.4378">
        <ele>374.14</ele>
        <time>2019-09-08T10:34:22Z</time>
      </trkpt>
      <trkpt lat="43.04999" lon="1.4379">
        <ele>377.63</ele>
        <time>2019-09-08T11:11:24Z</time>
      </trkpt>
      <trkpt lat="43.04973" lon="1.43788">
        <ele>381.41</ele>
        <time>2019-09-08T11:12:27Z</time>
      </trkpt>
      <trkpt lat="43.04963" lon="1.43819">
        <ele>381.88</ele>
        <time>2019-09-08T11:13:56Z</time>
      </trkpt>
      <trkpt lat="43.04959" lon="1.43867">
        <ele>381.7</ele>
        <time>2019-09-08T11:14:30Z</time>
      </trkpt>
      <trkpt lat="43.04951" lon="1.43912">
        <ele>381.36</ele>
        <time>2019-09-08T11:15:01Z</time>
      </trkpt>
      <trkpt lat="43.04946" lon="1.4396">
        <ele>381</ele>
        <time>2019-09-08T11:15:30Z</time>
      </trkpt>
      <trkpt lat="43.04933" lon="1.44004">
        <ele>380.64</ele>
        <time>2019-09-08T11:15:58Z</time>
      </trkpt>
      <trkpt lat="43.04922" lon="1.4406">
        <ele>376.2</ele>
        <time>2019-09-08T11:16:40Z</time>
      </trkpt>
      <trkpt lat="43.04897" lon="1.44111">
        <ele>375.58</ele>
        <time>2019-09-08T11:17:22Z</time>
      </trkpt>
      <trkpt lat="43.04877" lon="1.44156">
        <ele>377.42</ele>
        <time>2019-09-08T11:17:59Z</time>
      </trkpt>
      <trkpt lat="43.0485" lon="1.44172">
        <ele>377.76</ele>
        <time>2019-09-08T11:18:42Z</time>
      </trkpt>
      <trkpt lat="43.04803" lon="1.44159">
        <ele>376.7</ele>
        <time>2019-09-08T11:19:30Z</time>
      </trkpt>
      <trkpt lat="43.04752" lon="1.44168">
        <ele>376.26</ele>
        <time>2019-09-08T11:20:16Z</time>
      </trkpt>
      <trkpt lat="43.04755" lon="1.44215">
        <ele>375.57</ele>
        <time>2019-09-08T11:21:00Z</time>
      </trkpt>
      <trkpt lat="43.04778" lon="1.44268">
        <ele>376.06</ele>
        <time>2019-09-08T11:21:39Z</time>
      </trkpt>
      <trkpt lat="43.04795" lon="1.44312">
        <ele>372.64</ele>
        <time>2019-09-08T11:22:21Z</time>
      </trkpt>
      <trkpt lat="43.04797" lon="1.44363">
        <ele>372.39</ele>
        <time>2019-09-08T11:24:00Z</time>
      </trkpt>
      <trkpt lat="43.04783" lon="1.44425">
        <ele>371.81</ele>
        <time>2019-09-08T11:24:56Z</time>
      </trkpt>
      <trkpt lat="43.04774" lon="1.44486">
        <ele>371.3</ele>
        <time>2019-09-08T11:25:40Z</time>
      </trkpt>
      <trkpt lat="43.04758" lon="1.44547">
        <ele>370.68</ele>
        <time>2019-09-08T11:26:26Z</time>
      </trkpt>
      <trkpt lat="43.04745" lon="1.44603">
        <ele>370.12</ele>
        <time>2019-09-08T11:27:09Z</time>
      </trkpt>
      <trkpt lat="43.04733" lon="1.44661">
        <ele>369.63</ele>
        <time>2019-09-08T11:27:45Z</time>
      </trkpt>
      <trkpt lat="43.0471" lon="1.44709">
        <ele>369.13</ele>
        <time>2019-09-08T11:28:32Z</time>
      </trkpt>
      <trkpt lat="43.04694" lon="1.4477">
        <ele>368.47</ele>
        <time>2019-09-08T11:29:19Z</time>
      </trkpt>
      <trkpt lat="43.04679" lon="1.44831">
        <ele>369.98</ele>
        <time>2019-09-08T11:30:08Z</time>
      </trkpt>
      <trkpt lat="43.04674" lon="1.44854">
        <ele>369.85</ele>
        <time>2019-09-08T11:31:40Z</time>
      </trkpt>
      <trkpt lat="43.04636" lon="1.44879">
        <ele>369.87</ele>
        <time>2019-09-08T11:32:24Z</time>
      </trkpt>
      <trkpt lat="43.04599" lon="1.44909">
        <ele>369.66</ele>
        <time>2019-09-08T11:33:13Z</time>
      </trkpt>
      <trkpt lat="43.04594" lon="1.44953">
        <ele>367.37</ele>
        <time>2019-09-08T11:34:03Z</time>
      </trkpt>
      <trkpt lat="43.04588" lon="1.44997">
        <ele>367.02</ele>
        <time>2019-09-08T11:34:42Z</time>
      </trkpt>
      <trkpt lat="43.04577" lon="1.45037">
        <ele>367.73</ele>
        <time>2019-09-08T11:35:25Z</time>
      </trkpt>
      <trkpt lat="43.04581" lon="1.45087">
        <ele>368.44</ele>
        <time>2019-09-08T11:35:59Z</time>
      </trkpt>
      <trkpt lat="43.04561" lon="1.45126">
        <ele>368.32</ele>
        <time>2019-09-08T11:36:32Z</time>
      </trkpt>
      <trkpt lat="43.04542" lon="1.45163">
        <ele>369.35</ele>
        <time>2019-09-08T11:37:03Z</time>
      </trkpt>
      <trkpt lat="43.04525" lon="1.45201">
        <ele>369.29</ele>
        <time>2019-09-08T11:37:33Z</time>
      </trkpt>
      <trkpt lat="43.04505" lon="1.4524">
        <ele>370.42</ele>
        <time>2019-09-08T11:38:06Z</time>
      </trkpt>
      <trkpt lat="43.04499" lon="1.4529">
        <ele>372.35</ele>
        <time>2019-09-08T11:39:08Z</time>
      </trkpt>
      <trkpt lat="43.04494" lon="1.45354">
        <ele>375</ele>
        <time>2019-09-08T11:39:56Z</time>
      </trkpt>
      <trkpt lat="43.04479" lon="1.45436">
        <ele>375.51</ele>
        <time>2019-09-08T11:40:53Z</time>
      </trkpt>
      <trkpt lat="43.04469" lon="1.45482">
        <ele>376.33</ele>
        <time>2019-09-08T11:41:37Z</time>
      </trkpt>
      <trkpt lat="43.0445" lon="1.45549">
        <ele>377.71</ele>
        <time>2019-09-08T11:42:26Z</time>
      </trkpt>
      <trkpt lat="43.04432" lon="1.45608">
        <ele>379.14</ele>
        <time>2019-09-08T11:43:19Z</time>
      </trkpt>
      <trkpt lat="43.04412" lon="1.45663">
        <ele>380.63</ele>
        <time>2019-09-08T11:44:05Z</time>
      </trkpt>
      <trkpt lat="43.04375" lon="1.45721">
        <ele>382.83</ele>
        <time>2019-09-08T11:44:58Z</time>
      </trkpt>
      <trkpt lat="43.04356" lon="1.45776">
        <ele>384.15</ele>
        <time>2019-09-08T11:45:40Z</time>
      </trkpt>
      <trkpt lat="43.04341" lon="1.45839">
        <ele>386.54</ele>
        <time>2019-09-08T11:46:22Z</time>
      </trkpt>
      <trkpt lat="43.04337" lon="1.45894">
        <ele>386.99</ele>
        <time>2019-09-08T11:47:01Z</time>
      </trkpt>
      <trkpt lat="43.04302" lon="1.45884">
        <ele>382</ele>
        <time>2019-09-08T11:49:09Z</time>
      </trkpt>
      <trkpt lat="43.0427" lon="1.45863">
        <ele>378.55</ele>
        <time>2019-09-08T11:49:39Z</time>
      </trkpt>
      <trkpt lat="43.04245" lon="1.45848">
        <ele>381.11</ele>
        <time>2019-09-08T11:52:29Z</time>
      </trkpt>
      <trkpt lat="43.04217" lon="1.45823">
        <ele>382.74</ele>
        <time>2019-09-08T11:53:03Z</time>
      </trkpt>
      <trkpt lat="43.04211" lon="1.4578">
        <ele>388.19</ele>
        <time>2019-09-08T11:53:48Z</time>
      </trkpt>
      <trkpt lat="43.04207" lon="1.45722">
        <ele>396.53</ele>
        <time>2019-09-08T11:54:44Z</time>
      </trkpt>
      <trkpt lat="43.04189" lon="1.45698">
        <ele>403.81</ele>
        <time>2019-09-08T11:55:37Z</time>
      </trkpt>
      <trkpt lat="43.04154" lon="1.45672">
        <ele>411.29</ele>
        <time>2019-09-08T11:56:35Z</time>
      </trkpt>
      <trkpt lat="43.04116" lon="1.45657">
        <ele>418.34</ele>
        <time>2019-09-08T11:57:27Z</time>
      </trkpt>
      <trkpt lat="43.04086" lon="1.45638">
        <ele>421.43</ele>
        <time>2019-09-08T11:58:31Z</time>
      </trkpt>
      <trkpt lat="43.0408" lon="1.4562">
        <ele>421.62</ele>
        <time>2019-09-08T12:00:38Z</time>
      </trkpt>
      <trkpt lat="43.04077" lon="1.45626">
        <ele>422.6</ele>
        <time>2019-09-08T12:02:19Z</time>
      </trkpt>
      <trkpt lat="43.04075" lon="1.45622">
        <ele>423.64</ele>
        <time>2019-09-08T12:03:55Z</time>
      </trkpt>
      <trkpt lat="43.04048" lon="1.45614">
        <ele>429.35</ele>
        <time>2019-09-08T12:05:08Z</time>
      </trkpt>
      <trkpt lat="43.04006" lon="1.45605">
        <ele>438</ele>
        <time>2019-09-08T12:06:01Z</time>
      </trkpt>
      <trkpt lat="43.03967" lon="1.456">
        <ele>445.19</ele>
        <time>2019-09-08T12:06:52Z</time>
      </trkpt>
      <trkpt lat="43.03928" lon="1.4559">
        <ele>453.61</ele>
        <time>2019-09-08T12:07:49Z</time>
      </trkpt>
      <trkpt lat="43.03903" lon="1.45567">
        <ele>458.8</ele>
        <time>2019-09-08T12:08:55Z</time>
      </trkpt>
      <trkpt lat="43.03878" lon="1.45567">
        <ele>462.91</ele>
        <time>2019-09-08T12:10:10Z</time>
      </trkpt>
      <trkpt lat="43.03849" lon="1.45552">
        <ele>470.41</ele>
        <time>2019-09-08T12:10:53Z</time>
      </trkpt>
      <trkpt lat="43.03821" lon="1.45531">
        <ele>475.77</ele>
        <time>2019-09-08T12:11:39Z</time>
      </trkpt>
      <trkpt lat="43.03796" lon="1.45507">
        <ele>478.8</ele>
        <time>2019-09-08T12:13:02Z</time>
      </trkpt>
      <trkpt lat="43.0379" lon="1.45495">
        <ele>480.38</ele>
        <time>2019-09-08T12:14:55Z</time>
      </trkpt>
      <trkpt lat="43.03769" lon="1.45466">
        <ele>483.14</ele>
        <time>2019-09-08T12:16:27Z</time>
      </trkpt>
      <trkpt lat="43.03746" lon="1.45435">
        <ele>487</ele>
        <time>2019-09-08T12:17:05Z</time>
      </trkpt>
      <trkpt lat="43.03727" lon="1.45401">
        <ele>492.47</ele>
        <time>2019-09-08T12:17:50Z</time>
      </trkpt>
      <trkpt lat="43.03704" lon="1.4537">
        <ele>499.74</ele>
        <time>2019-09-08T12:18:40Z</time>
      </trkpt>
      <trkpt lat="43.03682" lon="1.45343">
        <ele>504.19</ele>
        <time>2019-09-08T12:19:28Z</time>
      </trkpt>
      <trkpt lat="43.0366" lon="1.45316">
        <ele>508.56</ele>
        <time>2019-09-08T12:20:13Z</time>
      </trkpt>
      <trkpt lat="43.03637" lon="1.45291">
        <ele>515.12</ele>
        <time>2019-09-08T12:21:03Z</time>
      </trkpt>
      <trkpt lat="43.03611" lon="1.45268">
        <ele>519.29</ele>
        <time>2019-09-08T12:21:51Z</time>
      </trkpt>
      <trkpt lat="43.03585" lon="1.4525">
        <ele>525.03</ele>
        <time>2019-09-08T12:22:40Z</time>
      </trkpt>
      <trkpt lat="43.03561" lon="1.4524">
        <ele>529.73</ele>
        <time>2019-09-08T12:31:05Z</time>
      </trkpt>
      <trkpt lat="43.03533" lon="1.45229">
        <ele>531.53</ele>
        <time>2019-09-08T12:31:35Z</time>
      </trkpt>
      <trkpt lat="43.03507" lon="1.45221">
        <ele>534.87</ele>
        <time>2019-09-08T12:32:03Z</time>
      </trkpt>
      <trkpt lat="43.03484" lon="1.45202">
        <ele>535.89</ele>
        <time>2019-09-08T12:32:32Z</time>
      </trkpt>
      <trkpt lat="43.03466" lon="1.45173">
        <ele>532.44</ele>
        <time>2019-09-08T12:32:58Z</time>
      </trkpt>
      <trkpt lat="43.03448" lon="1.45142">
        <ele>530.92</ele>
        <time>2019-09-08T12:33:23Z</time>
      </trkpt>
      <trkpt lat="43.0343" lon="1.45112">
        <ele>530.23</ele>
        <time>2019-09-08T12:33:50Z</time>
      </trkpt>
      <trkpt lat="43.03414" lon="1.45081">
        <ele>531.36</ele>
        <time>2019-09-08T12:34:14Z</time>
      </trkpt>
      <trkpt lat="43.03394" lon="1.45052">
        <ele>533.29</ele>
        <time>2019-09-08T12:34:41Z</time>
      </trkpt>
      <trkpt lat="43.03372" lon="1.45024">
        <ele>534.19</ele>
        <time>2019-09-08T12:35:10Z</time>
      </trkpt>
      <trkpt lat="43.03357" lon="1.44987">
        <ele>536.57</ele>
        <time>2019-09-08T12:35:40Z</time>
      </trkpt>
      <trkpt lat="43.03347" lon="1.4495">
        <ele>534.16</ele>
        <time>2019-09-08T12:36:10Z</time>
      </trkpt>
      <trkpt lat="43.03338" lon="1.44947">
        <ele>534.3</ele>
        <time>2019-09-08T12:41:38Z</time>
      </trkpt>
      <trkpt lat="43.03311" lon="1.44948">
        <ele>534.31</ele>
        <time>2019-09-08T12:42:11Z</time>
      </trkpt>
      <trkpt lat="43.03284" lon="1.44957">
        <ele>532.56</ele>
        <time>2019-09-08T12:42:39Z</time>
      </trkpt>
      <trkpt lat="43.03255" lon="1.44962">
        <ele>530.09</ele>
        <time>2019-09-08T12:43:08Z</time>
      </trkpt>
      <trkpt lat="43.03231" lon="1.44982">
        <ele>526.23</ele>
        <time>2019-09-08T12:43:34Z</time>
      </trkpt>
      <trkpt lat="43.03209" lon="1.45005">
        <ele>523.62</ele>
        <time>2019-09-08T12:43:59Z</time>
      </trkpt>
      <trkpt lat="43.03186" lon="1.45027">
        <ele>521.91</ele>
        <time>2019-09-08T12:44:25Z</time>
      </trkpt>
      <trkpt lat="43.03162" lon="1.45049">
        <ele>518.87</ele>
        <time>2019-09-08T12:44:51Z</time>
      </trkpt>
      <trkpt lat="43.03137" lon="1.45068">
        <ele>516.91</ele>
        <time>2019-09-08T12:45:17Z</time>
      </trkpt>
      <trkpt lat="43.03111" lon="1.45084">
        <ele>515.93</ele>
        <time>2019-09-08T12:45:43Z</time>
      </trkpt>
      <trkpt lat="43.03086" lon="1.45102">
        <ele>515.01</ele>
        <time>2019-09-08T12:46:09Z</time>
      </trkpt>
      <trkpt lat="43.03059" lon="1.45117">
        <ele>512.57</ele>
        <time>2019-09-08T12:46:35Z</time>
      </trkpt>
      <trkpt lat="43.03032" lon="1.45135">
        <ele>511.77</ele>
        <time>2019-09-08T12:47:03Z</time>
      </trkpt>
      <trkpt lat="43.03004" lon="1.45154">
        <ele>512.34</ele>
        <time>2019-09-08T12:48:49Z</time>
      </trkpt>
      <trkpt lat="43.02975" lon="1.45153">
        <ele>513.48</ele>
        <time>2019-09-08T12:50:13Z</time>
      </trkpt>
      <trkpt lat="43.02943" lon="1.45163">
        <ele>519.21</ele>
        <time>2019-09-08T12:50:49Z</time>
      </trkpt>
      <trkpt lat="43.02924" lon="1.45205">
        <ele>521.02</ele>
        <time>2019-09-08T12:51:25Z</time>
      </trkpt>
      <trkpt lat="43.02899" lon="1.45236">
        <ele>524.36</ele>
        <time>2019-09-08T12:52:03Z</time>
      </trkpt>
      <trkpt lat="43.0287" lon="1.45261">
        <ele>528</ele>
        <time>2019-09-08T12:52:37Z</time>
      </trkpt>
      <trkpt lat="43.02845" lon="1.45286">
        <ele>528.27</ele>
        <time>2019-09-08T12:53:42Z</time>
      </trkpt>
      <trkpt lat="43.02829" lon="1.45335">
        <ele>527.14</ele>
        <time>2019-09-08T12:54:28Z</time>
      </trkpt>
      <trkpt lat="43.02834" lon="1.45387">
        <ele>529.81</ele>
        <time>2019-09-08T12:55:16Z</time>
      </trkpt>
      <trkpt lat="43.02832" lon="1.45441">
        <ele>533.82</ele>
        <time>2019-09-08T12:56:01Z</time>
      </trkpt>
      <trkpt lat="43.02818" lon="1.45497">
        <ele>540.1</ele>
        <time>2019-09-08T12:56:55Z</time>
      </trkpt>
      <trkpt lat="43.02789" lon="1.45548">
        <ele>544.1</ele>
        <time>2019-09-08T12:57:46Z</time>
      </trkpt>
      <trkpt lat="43.02767" lon="1.45591">
        <ele>543.97</ele>
        <time>2019-09-08T12:58:26Z</time>
      </trkpt>
      <trkpt lat="43.02752" lon="1.45637">
        <ele>541.66</ele>
        <time>2019-09-08T12:59:00Z</time>
      </trkpt>
      <trkpt lat="43.0274" lon="1.4568">
        <ele>541.6</ele>
        <time>2019-09-08T12:59:31Z</time>
      </trkpt>
      <trkpt lat="43.02716" lon="1.457">
        <ele>545.33</ele>
        <time>2019-09-08T13:00:10Z</time>
      </trkpt>
      <trkpt lat="43.02686" lon="1.45692">
        <ele>545.22</ele>
        <time>2019-09-08T13:00:42Z</time>
      </trkpt>
      <trkpt lat="43.02656" lon="1.45697">
        <ele>547.97</ele>
        <time>2019-09-08T13:02:40Z</time>
      </trkpt>
      <trkpt lat="43.02624" lon="1.45699">
        <ele>548.3</ele>
        <time>2019-09-08T13:03:13Z</time>
      </trkpt>
      <trkpt lat="43.02594" lon="1.45733">
        <ele>551.53</ele>
        <time>2019-09-08T13:03:56Z</time>
      </trkpt>
      <trkpt lat="43.02575" lon="1.45775">
        <ele>548.94</ele>
        <time>2019-09-08T13:04:34Z</time>
      </trkpt>
      <trkpt lat="43.02565" lon="1.45817">
        <ele>549.22</ele>
        <time>2019-09-08T13:05:54Z</time>
      </trkpt>
      <trkpt lat="43.0255" lon="1.4583">
        <ele>550.59</ele>
        <time>2019-09-08T13:08:31Z</time>
      </trkpt>
      <trkpt lat="43.0253" lon="1.45865">
        <ele>547.89</ele>
        <time>2019-09-08T13:09:03Z</time>
      </trkpt>
      <trkpt lat="43.02519" lon="1.45903">
        <ele>550.52</ele>
        <time>2019-09-08T13:09:30Z</time>
      </trkpt>
      <trkpt lat="43.02497" lon="1.45927">
        <ele>552.39</ele>
        <time>2019-09-08T13:09:58Z</time>
      </trkpt>
      <trkpt lat="43.02473" lon="1.45954">
        <ele>557.62</ele>
        <time>2019-09-08T13:10:32Z</time>
      </trkpt>
      <trkpt lat="43.02449" lon="1.45981">
        <ele>560.94</ele>
        <time>2019-09-08T13:11:02Z</time>
      </trkpt>
      <trkpt lat="43.02424" lon="1.46">
        <ele>562.67</ele>
        <time>2019-09-08T13:11:32Z</time>
      </trkpt>
      <trkpt lat="43.02397" lon="1.46014">
        <ele>565.71</ele>
        <time>2019-09-08T13:12:01Z</time>
      </trkpt>
      <trkpt lat="43.02365" lon="1.46026">
        <ele>568.13</ele>
        <time>2019-09-08T13:12:37Z</time>
      </trkpt>
      <trkpt lat="43.02339" lon="1.46049">
        <ele>564.91</ele>
        <time>2019-09-08T13:13:04Z</time>
      </trkpt>
      <trkpt lat="43.02314" lon="1.46076">
        <ele>562.38</ele>
        <time>2019-09-08T13:13:32Z</time>
      </trkpt>
      <trkpt lat="43.02302" lon="1.46119">
        <ele>560.72</ele>
        <time>2019-09-08T13:14:28Z</time>
      </trkpt>
      <trkpt lat="43.02295" lon="1.46158">
        <ele>560.73</ele>
        <time>2019-09-08T13:14:57Z</time>
      </trkpt>
      <trkpt lat="43.02276" lon="1.46194">
        <ele>560.65</ele>
        <time>2019-09-08T13:15:33Z</time>
      </trkpt>
      <trkpt lat="43.02264" lon="1.46231">
        <ele>560.63</ele>
        <time>2019-09-08T13:16:04Z</time>
      </trkpt>
      <trkpt lat="43.02259" lon="1.46273">
        <ele>559.37</ele>
        <time>2019-09-08T13:16:37Z</time>
      </trkpt>
      <trkpt lat="43.02248" lon="1.46319">
        <ele>561.8</ele>
        <time>2019-09-08T13:17:05Z</time>
      </trkpt>
      <trkpt lat="43.02235" lon="1.46357">
        <ele>562.93</ele>
        <time>2019-09-08T13:17:31Z</time>
      </trkpt>
      <trkpt lat="43.02219" lon="1.46394">
        <ele>563.28</ele>
        <time>2019-09-08T13:18:05Z</time>
      </trkpt>
      <trkpt lat="43.02191" lon="1.46407">
        <ele>566.12</ele>
        <time>2019-09-08T13:18:52Z</time>
      </trkpt>
      <trkpt lat="43.02159" lon="1.46401">
        <ele>567.21</ele>
        <time>2019-09-08T13:19:21Z</time>
      </trkpt>
      <trkpt lat="43.0213" lon="1.46402">
        <ele>567.19</ele>
        <time>2019-09-08T13:19:48Z</time>
      </trkpt>
      <trkpt lat="43.02105" lon="1.46386">
        <ele>567.29</ele>
        <time>2019-09-08T13:20:15Z</time>
      </trkpt>
      <trkpt lat="43.02093" lon="1.46353">
        <ele>567.35</ele>
        <time>2019-09-08T13:20:43Z</time>
      </trkpt>
      <trkpt lat="43.02084" lon="1.46314">
        <ele>567.45</ele>
        <time>2019-09-08T13:21:09Z</time>
      </trkpt>
      <trkpt lat="43.0209" lon="1.46273">
        <ele>571.14</ele>
        <time>2019-09-08T13:21:39Z</time>
      </trkpt>
      <trkpt lat="43.02109" lon="1.46236">
        <ele>571.88</ele>
        <time>2019-09-08T13:22:14Z</time>
      </trkpt>
      <trkpt lat="43.02104" lon="1.46246">
        <ele>571.86</ele>
        <time>2019-09-08T13:23:01Z</time>
      </trkpt>
      <trkpt lat="43.02087" lon="1.46279">
        <ele>571.91</ele>
        <time>2019-09-08T13:24:18Z</time>
      </trkpt>
      <trkpt lat="43.02084" lon="1.46319">
        <ele>568.64</ele>
        <time>2019-09-08T13:24:48Z</time>
      </trkpt>
      <trkpt lat="43.02093" lon="1.46354">
        <ele>567.1</ele>
        <time>2019-09-08T13:25:14Z</time>
      </trkpt>
      <trkpt lat="43.02079" lon="1.46373">
        <ele>566.27</ele>
        <time>2019-09-08T13:26:12Z</time>
      </trkpt>
      <trkpt lat="43.02048" lon="1.46378">
        <ele>564.71</ele>
        <time>2019-09-08T13:27:01Z</time>
      </trkpt>
      <trkpt lat="43.02022" lon="1.46407">
        <ele>557.96</ele>
        <time>2019-09-08T13:27:44Z</time>
      </trkpt>
      <trkpt lat="43.02005" lon="1.46432">
        <ele>552.36</ele>
        <time>2019-09-08T13:29:13Z</time>
      </trkpt>
      <trkpt lat="43.01985" lon="1.4646">
        <ele>547.42</ele>
        <time>2019-09-08T13:30:00Z</time>
      </trkpt>
      <trkpt lat="43.01955" lon="1.46475">
        <ele>543.59</ele>
        <time>2019-09-08T13:30:47Z</time>
      </trkpt>
      <trkpt lat="43.01928" lon="1.46499">
        <ele>537.67</ele>
        <time>2019-09-08T13:31:21Z</time>
      </trkpt>
      <trkpt lat="43.01896" lon="1.46514">
        <ele>533.31</ele>
        <time>2019-09-08T13:32:07Z</time>
      </trkpt>
      <trkpt lat="43.0187" lon="1.46537">
        <ele>527.24</ele>
        <time>2019-09-08T13:32:43Z</time>
      </trkpt>
      <trkpt lat="43.01846" lon="1.46565">
        <ele>521.98</ele>
        <time>2019-09-08T13:33:17Z</time>
      </trkpt>
      <trkpt lat="43.01822" lon="1.46595">
        <ele>517.7</ele>
        <time>2019-09-08T13:33:57Z</time>
      </trkpt>
      <trkpt lat="43.018" lon="1.4663">
        <ele>515.59</ele>
        <time>2019-09-08T13:34:34Z</time>
      </trkpt>
      <trkpt lat="43.01786" lon="1.4668">
        <ele>512.35</ele>
        <time>2019-09-08T13:35:13Z</time>
      </trkpt>
      <trkpt lat="43.01773" lon="1.46724">
        <ele>516.24</ele>
        <time>2019-09-08T13:35:50Z</time>
      </trkpt>
      <trkpt lat="43.01756" lon="1.46755">
        <ele>516.81</ele>
        <time>2019-09-08T13:39:45Z</time>
      </trkpt>
      <trkpt lat="43.01731" lon="1.46785">
        <ele>512.46</ele>
        <time>2019-09-08T13:40:22Z</time>
      </trkpt>
      <trkpt lat="43.01711" lon="1.46814">
        <ele>508.14</ele>
        <time>2019-09-08T13:40:51Z</time>
      </trkpt>
      <trkpt lat="43.01687" lon="1.46841">
        <ele>502.34</ele>
        <time>2019-09-08T13:41:22Z</time>
      </trkpt>
      <trkpt lat="43.01659" lon="1.46861">
        <ele>495.45</ele>
        <time>2019-09-08T13:41:55Z</time>
      </trkpt>
      <trkpt lat="43.01637" lon="1.46886">
        <ele>487.06</ele>
        <time>2019-09-08T13:42:50Z</time>
      </trkpt>
      <trkpt lat="43.01624" lon="1.46932">
        <ele>480.81</ele>
        <time>2019-09-08T13:43:32Z</time>
      </trkpt>
      <trkpt lat="43.01602" lon="1.46922">
        <ele>474.64</ele>
        <time>2019-09-08T13:44:19Z</time>
      </trkpt>
      <trkpt lat="43.01588" lon="1.46873">
        <ele>473.36</ele>
        <time>2019-09-08T13:45:01Z</time>
      </trkpt>
      <trkpt lat="43.01558" lon="1.46828">
        <ele>465.77</ele>
        <time>2019-09-08T13:45:53Z</time>
      </trkpt>
      <trkpt lat="43.01522" lon="1.46794">
        <ele>461.79</ele>
        <time>2019-09-08T13:46:44Z</time>
      </trkpt>
      <trkpt lat="43.01493" lon="1.46751">
        <ele>458.76</ele>
        <time>2019-09-08T13:47:33Z</time>
      </trkpt>
      <trkpt lat="43.0147" lon="1.46701">
        <ele>454.43</ele>
        <time>2019-09-08T13:48:17Z</time>
      </trkpt>
      <trkpt lat="43.01457" lon="1.46657">
        <ele>453.1</ele>
        <time>2019-09-08T13:48:57Z</time>
      </trkpt>
      <trkpt lat="43.01451" lon="1.46637">
        <ele>450.27</ele>
        <time>2019-09-08T13:54:37Z</time>
      </trkpt>
      <trkpt lat="43.01434" lon="1.46588">
        <ele>443.84</ele>
        <time>2019-09-08T13:55:14Z</time>
      </trkpt>
      <trkpt lat="43.01397" lon="1.4657">
        <ele>439.32</ele>
        <time>2019-09-08T13:55:54Z</time>
      </trkpt>
      <trkpt lat="43.01364" lon="1.4656">
        <ele>438.17</ele>
        <time>2019-09-08T13:56:24Z</time>
      </trkpt>
      <trkpt lat="43.0135" lon="1.4652">
        <ele>436.96</ele>
        <time>2019-09-08T13:56:58Z</time>
      </trkpt>
      <trkpt lat="43.01317" lon="1.46484">
        <ele>435.98</ele>
        <time>2019-09-08T13:57:37Z</time>
      </trkpt>
      <trkpt lat="43.0128" lon="1.46462">
        <ele>430.79</ele>
        <time>2019-09-08T13:58:17Z</time>
      </trkpt>
      <trkpt lat="43.0124" lon="1.4643">
        <ele>428.14</ele>
        <time>2019-09-08T13:58:59Z</time>
      </trkpt>
      <trkpt lat="43.01198" lon="1.46415">
        <ele>426.43</ele>
        <time>2019-09-08T13:59:39Z</time>
      </trkpt>
      <trkpt lat="43.01152" lon="1.46406">
        <ele>423.26</ele>
        <time>2019-09-08T14:00:19Z</time>
      </trkpt>
      <trkpt lat="43.01112" lon="1.46414">
        <ele>419.44</ele>
        <time>2019-09-08T14:01:10Z</time>
      </trkpt>
      <trkpt lat="43.01074" lon="1.46422">
        <ele>416.17</ele>
        <time>2019-09-08T14:01:42Z</time>
      </trkpt>
      <trkpt lat="43.01042" lon="1.46414">
        <ele>416.33</ele>
        <time>2019-09-08T14:02:12Z</time>
      </trkpt>
      <trkpt lat="43.01015" lon="1.46395">
        <ele>416.58</ele>
        <time>2019-09-08T14:02:45Z</time>
      </trkpt>
      <trkpt lat="43.01018" lon="1.46352">
        <ele>414.07</ele>
        <time>2019-09-08T14:03:16Z</time>
      </trkpt>
      <trkpt lat="43.01034" lon="1.46311">
        <ele>413.17</ele>
        <time>2019-09-08T14:03:44Z</time>
      </trkpt>
      <trkpt lat="43.01041" lon="1.46273">
        <ele>413.07</ele>
        <time>2019-09-08T14:04:11Z</time>
      </trkpt>
      <trkpt lat="43.01047" lon="1.46234">
        <ele>413.07</ele>
        <time>2019-09-08T14:04:37Z</time>
      </trkpt>
      <trkpt lat="43.01053" lon="1.46194">
        <ele>410.59</ele>
        <time>2019-09-08T14:05:04Z</time>
      </trkpt>
      <trkpt lat="43.01058" lon="1.46151">
        <ele>412.84</ele>
        <time>2019-09-08T14:05:33Z</time>
      </trkpt>
      <trkpt lat="43.01062" lon="1.46108">
        <ele>412.81</ele>
        <time>2019-09-08T14:06:03Z</time>
      </trkpt>
      <trkpt lat="43.01068" lon="1.46066">
        <ele>412.74</ele>
        <time>2019-09-08T14:06:30Z</time>
      </trkpt>
      <trkpt lat="43.01075" lon="1.46026">
        <ele>412.61</ele>
        <time>2019-09-08T14:06:56Z</time>
      </trkpt>
      <trkpt lat="43.01085" lon="1.45989">
        <ele>412.46</ele>
        <time>2019-09-08T14:07:24Z</time>
      </trkpt>
      <trkpt lat="43.01093" lon="1.45947">
        <ele>412.21</ele>
        <time>2019-09-08T14:07:55Z</time>
      </trkpt>
      <trkpt lat="43.01097" lon="1.45904">
        <ele>412.03</ele>
        <time>2019-09-08T14:08:21Z</time>
      </trkpt>
      <trkpt lat="43.01092" lon="1.45857">
        <ele>411.89</ele>
        <time>2019-09-08T14:08:50Z</time>
      </trkpt>
      <trkpt lat="43.01095" lon="1.45814">
        <ele>411.85</ele>
        <time>2019-09-08T14:09:19Z</time>
      </trkpt>
      <trkpt lat="43.01097" lon="1.45767">
        <ele>411.82</ele>
        <time>2019-09-08T14:09:46Z</time>
      </trkpt>
      <trkpt lat="43.011" lon="1.45728">
        <ele>411.77</ele>
        <time>2019-09-08T14:10:17Z</time>
      </trkpt>
      <trkpt lat="43.01105" lon="1.45686">
        <ele>412.54</ele>
        <time>2019-09-08T14:10:46Z</time>
      </trkpt>
      <trkpt lat="43.01121" lon="1.45642">
        <ele>409.36</ele>
        <time>2019-09-08T14:11:22Z</time>
      </trkpt>
      <trkpt lat="43.01144" lon="1.45592">
        <ele>407.38</ele>
        <time>2019-09-08T14:12:03Z</time>
      </trkpt>
      <trkpt lat="43.01179" lon="1.45564">
        <ele>407.41</ele>
        <time>2019-09-08T14:12:42Z</time>
      </trkpt>
      <trkpt lat="43.01202" lon="1.4553">
        <ele>410.93</ele>
        <time>2019-09-08T14:13:19Z</time>
      </trkpt>
      <trkpt lat="43.01241" lon="1.455">
        <ele>408.32</ele>
        <time>2019-09-08T14:14:01Z</time>
      </trkpt>
      <trkpt lat="43.01267" lon="1.4546">
        <ele>407.37</ele>
        <time>2019-09-08T14:14:40Z</time>
      </trkpt>
      <trkpt lat="43.01292" lon="1.45418">
        <ele>407.24</ele>
        <time>2019-09-08T14:15:11Z</time>
      </trkpt>
      <trkpt lat="43.01306" lon="1.45385">
        <ele>407.17</ele>
        <time>2019-09-08T14:17:15Z</time>
      </trkpt>
      <trkpt lat="43.01325" lon="1.45337">
        <ele>407.11</ele>
        <time>2019-09-08T14:17:52Z</time>
      </trkpt>
      <trkpt lat="43.01345" lon="1.45285">
        <ele>409.04</ele>
        <time>2019-09-08T14:18:37Z</time>
      </trkpt>
      <trkpt lat="43.01335" lon="1.45233">
        <ele>407.96</ele>
        <time>2019-09-08T14:19:19Z</time>
      </trkpt>
      <trkpt lat="43.01327" lon="1.45182">
        <ele>407.8</ele>
        <time>2019-09-08T14:19:48Z</time>
      </trkpt>
      <trkpt lat="43.01318" lon="1.45138">
        <ele>407.69</ele>
        <time>2019-09-08T14:20:15Z</time>
      </trkpt>
      <trkpt lat="43.01317" lon="1.45096">
        <ele>407.6</ele>
        <time>2019-09-08T14:20:46Z</time>
      </trkpt>
      <trkpt lat="43.01314" lon="1.45054">
        <ele>407.52</ele>
        <time>2019-09-08T14:21:13Z</time>
      </trkpt>
      <trkpt lat="43.01312" lon="1.45011">
        <ele>408.2</ele>
        <time>2019-09-08T14:21:39Z</time>
      </trkpt>
      <trkpt lat="43.01312" lon="1.44967">
        <ele>408.04</ele>
        <time>2019-09-08T14:22:08Z</time>
      </trkpt>
      <trkpt lat="43.01308" lon="1.44923">
        <ele>405.14</ele>
        <time>2019-09-08T14:22:35Z</time>
      </trkpt>
      <trkpt lat="43.01305" lon="1.44873">
        <ele>405.15</ele>
        <time>2019-09-08T14:23:07Z</time>
      </trkpt>
      <trkpt lat="43.01302" lon="1.44828">
        <ele>405.3</ele>
        <time>2019-09-08T14:23:36Z</time>
      </trkpt>
      <trkpt lat="43.01301" lon="1.4478">
        <ele>404.48</ele>
        <time>2019-09-08T14:24:10Z</time>
      </trkpt>
      <trkpt lat="43.01305" lon="1.44731">
        <ele>404.24</ele>
        <time>2019-09-08T14:24:42Z</time>
      </trkpt>
      <trkpt lat="43.01315" lon="1.44685">
        <ele>407.97</ele>
        <time>2019-09-08T14:25:17Z</time>
      </trkpt>
      <trkpt lat="43.01309" lon="1.44637">
        <ele>405.54</ele>
        <time>2019-09-08T14:25:47Z</time>
      </trkpt>
      <trkpt lat="43.01303" lon="1.44585">
        <ele>409.08</ele>
        <time>2019-09-08T14:26:24Z</time>
      </trkpt>
      <trkpt lat="43.01309" lon="1.44553">
        <ele>411.52</ele>
        <time>2019-09-08T14:30:09Z</time>
      </trkpt>
      <trkpt lat="43.01304" lon="1.44496">
        <ele>411.57</ele>
        <time>2019-09-08T14:30:55Z</time>
      </trkpt>
      <trkpt lat="43.01298" lon="1.44448">
        <ele>409.29</ele>
        <time>2019-09-08T14:31:26Z</time>
      </trkpt>
      <trkpt lat="43.01294" lon="1.44406">
        <ele>408.66</ele>
        <time>2019-09-08T14:31:52Z</time>
      </trkpt>
      <trkpt lat="43.0129" lon="1.4436">
        <ele>407.7</ele>
        <time>2019-09-08T14:32:20Z</time>
      </trkpt>
      <trkpt lat="43.01291" lon="1.44315">
        <ele>407.76</ele>
        <time>2019-09-08T14:32:48Z</time>
      </trkpt>
      <trkpt lat="43.01291" lon="1.44267">
        <ele>406.8</ele>
        <time>2019-09-08T14:33:18Z</time>
      </trkpt>
      <trkpt lat="43.01296" lon="1.4422">
        <ele>406.01</ele>
        <time>2019-09-08T14:33:47Z</time>
      </trkpt>
      <trkpt lat="43.01301" lon="1.44179">
        <ele>406.11</ele>
        <time>2019-09-08T14:34:12Z</time>
      </trkpt>
      <trkpt lat="43.01306" lon="1.44139">
        <ele>406.2</ele>
        <time>2019-09-08T14:34:38Z</time>
      </trkpt>
      <trkpt lat="43.01314" lon="1.44096">
        <ele>406.25</ele>
        <time>2019-09-08T14:35:02Z</time>
      </trkpt>
      <trkpt lat="43.01323" lon="1.44055">
        <ele>405.53</ele>
        <time>2019-09-08T14:35:30Z</time>
      </trkpt>
      <trkpt lat="43.01328" lon="1.44008">
        <ele>404.77</ele>
        <time>2019-09-08T14:35:59Z</time>
      </trkpt>
      <trkpt lat="43.01335" lon="1.43958">
        <ele>404</ele>
        <time>2019-09-08T14:36:32Z</time>
      </trkpt>
      <trkpt lat="43.01333" lon="1.43914">
        <ele>403.95</ele>
        <time>2019-09-08T14:36:59Z</time>
      </trkpt>
      <trkpt lat="43.01309" lon="1.43894">
        <ele>404.02</ele>
        <time>2019-09-08T14:37:38Z</time>
      </trkpt>
      <trkpt lat="43.01283" lon="1.43875">
        <ele>403.34</ele>
        <time>2019-09-08T14:38:06Z</time>
      </trkpt>
      <trkpt lat="43.01257" lon="1.43869">
        <ele>402.63</ele>
        <time>2019-09-08T14:38:41Z</time>
      </trkpt>
      <trkpt lat="43.01249" lon="1.43904">
        <ele>402.77</ele>
        <time>2019-09-08T14:39:54Z</time>
      </trkpt>
      <trkpt lat="43.01248" lon="1.43907">
        <ele>387.14</ele>
        <time>2019-09-08T14:42:13Z</time>
      </trkpt>
    </trkseg>
  </trk>
</gpx>